sensor_id;sensor_type;location;lat;lon;timestamp;temperature;humidity
75210;DHT22;63796;53.136;14.882;2023-09-30T00:01:28;18.50;99.90
75210;DHT22;63796;53.136;14.882;2023-09-30T00:03:56;18.40;99.90
75210;DHT22;63796;53.136;14.882;2023-09-30T00:06:24;18.30;99.90
75210;DHT22;63796;53.136;14.882;2023-09-30T00:08:51;18.40;99.90
75210;DHT22;63796;53.136;14.882;2023-09-30T00:11:19;18.20;99.90
75210;DHT22;63796;53.136;14.882;2023-09-30T00:13:46;18.10;99.90
75210;DHT22;63796;53.136;14.882;2023-09-30T00:16:16;18.10;99.90
75210;DHT22;63796;53.136;14.882;2023-09-30T00:18:46;18.10;99.90
75210;DHT22;63796;53.136;14.882;2023-09-30T00:21:14;18.00;99.90
75210;DHT22;63796;53.136;14.882;2023-09-30T00:23:42;18.00;99.90
75210;DHT22;63796;53.136;14.882;2023-09-30T00:26:09;18.00;99.90
75210;DHT22;63796;53.136;14.882;2023-09-30T00:28:37;17.90;99.90
75210;DHT22;63796;53.136;14.882;2023-09-30T00:31:08;17.90;99.90
75210;DHT22;63796;53.136;14.882;2023-09-30T00:33:38;17.90;99.90
75210;DHT22;63796;53.136;14.882;2023-09-30T00:36:09;17.90;99.90
75210;DHT22;63796;53.136;14.882;2023-09-30T00:38:38;17.90;99.90
75210;DHT22;63796;53.136;14.882;2023-09-30T00:41:05;17.70;99.90
75210;DHT22;63796;53.136;14.882;2023-09-30T00:43:34;17.60;99.90
75210;DHT22;63796;53.136;14.882;2023-09-30T00:46:02;17.60;99.90
75210;DHT22;63796;53.136;14.882;2023-09-30T00:48:34;17.50;99.90
75210;DHT22;63796;53.136;14.882;2023-09-30T00:51:02;17.50;99.90
75210;DHT22;63796;53.136;14.882;2023-09-30T00:53:30;17.50;99.90
75210;DHT22;63796;53.136;14.882;2023-09-30T00:55:58;17.40;99.90
75210;DHT22;63796;53.136;14.882;2023-09-30T00:58:26;17.40;99.90
75210;DHT22;63796;53.136;14.882;2023-09-30T01:00:56;17.40;99.90
75210;DHT22;63796;53.136;14.882;2023-09-30T01:03:24;17.20;99.90
75210;DHT22;63796;53.136;14.882;2023-09-30T01:05:52;17.30;99.90
75210;DHT22;63796;53.136;14.882;2023-09-30T01:08:20;17.30;99.90
75210;DHT22;63796;53.136;14.882;2023-09-30T01:10:48;17.20;99.90
75210;DHT22;63796;53.136;14.882;2023-09-30T01:13:16;17.30;99.90
75210;DHT22;63796;53.136;14.882;2023-09-30T01:15:43;17.30;99.90
75210;DHT22;63796;53.136;14.882;2023-09-30T01:18:11;17.30;99.90
75210;DHT22;63796;53.136;14.882;2023-09-30T01:20:39;17.20;99.90
75210;DHT22;63796;53.136;14.882;2023-09-30T01:23:07;17.20;99.90
75210;DHT22;63796;53.136;14.882;2023-09-30T01:25:34;17.20;99.90
75210;DHT22;63796;53.136;14.882;2023-09-30T01:28:02;17.10;99.90
75210;DHT22;63796;53.136;14.882;2023-09-30T01:30:34;17.10;99.90
75210;DHT22;63796;53.136;14.882;2023-09-30T01:33:02;17.10;99.90
75210;DHT22;63796;53.136;14.882;2023-09-30T01:35:29;17.10;99.90
75210;DHT22;63796;53.136;14.882;2023-09-30T01:37:57;17.10;99.90
75210;DHT22;63796;53.136;14.882;2023-09-30T01:40:25;17.10;99.90
75210;DHT22;63796;53.136;14.882;2023-09-30T01:42:52;17.00;99.90
75210;DHT22;63796;53.136;14.882;2023-09-30T01:45:19;16.90;99.90
75210;DHT22;63796;53.136;14.882;2023-09-30T01:47:47;16.90;99.90
75210;DHT22;63796;53.136;14.882;2023-09-30T01:50:15;16.90;99.90
75210;DHT22;63796;53.136;14.882;2023-09-30T01:52:42;16.80;99.90
75210;DHT22;63796;53.136;14.882;2023-09-30T01:55:09;16.80;99.90
75210;DHT22;63796;53.136;14.882;2023-09-30T01:57:37;16.70;99.90
75210;DHT22;63796;53.136;14.882;2023-09-30T02:00:05;16.70;99.90
75210;DHT22;63796;53.136;14.882;2023-09-30T02:02:36;16.80;99.90
75210;DHT22;63796;53.136;14.882;2023-09-30T02:05:04;16.60;99.90
75210;DHT22;63796;53.136;14.882;2023-09-30T02:07:34;16.60;99.90
75210;DHT22;63796;53.136;14.882;2023-09-30T02:10:02;16.40;99.90
75210;DHT22;63796;53.136;14.882;2023-09-30T02:12:30;16.40;99.90
75210;DHT22;63796;53.136;14.882;2023-09-30T02:14:58;16.20;99.90
75210;DHT22;63796;53.136;14.882;2023-09-30T02:17:25;16.00;99.90
75210;DHT22;63796;53.136;14.882;2023-09-30T02:19:53;15.90;99.90
75210;DHT22;63796;53.136;14.882;2023-09-30T02:22:21;15.90;99.90
75210;DHT22;63796;53.136;14.882;2023-09-30T02:24:50;15.80;99.90
75210;DHT22;63796;53.136;14.882;2023-09-30T02:27:18;15.60;99.90
75210;DHT22;63796;53.136;14.882;2023-09-30T02:29:45;15.60;99.90
75210;DHT22;63796;53.136;14.882;2023-09-30T02:32:13;15.40;99.90
75210;DHT22;63796;53.136;14.882;2023-09-30T02:34:41;15.40;99.90
75210;DHT22;63796;53.136;14.882;2023-09-30T02:37:11;15.30;99.90
75210;DHT22;63796;53.136;14.882;2023-09-30T02:39:38;15.20;99.90
75210;DHT22;63796;53.136;14.882;2023-09-30T02:42:06;15.20;99.90
75210;DHT22;63796;53.136;14.882;2023-09-30T02:44:34;15.20;99.90
75210;DHT22;63796;53.136;14.882;2023-09-30T02:47:01;15.20;99.90
75210;DHT22;63796;53.136;14.882;2023-09-30T02:49:32;15.10;99.90
75210;DHT22;63796;53.136;14.882;2023-09-30T02:52:00;15.10;99.90
75210;DHT22;63796;53.136;14.882;2023-09-30T02:54:29;15.00;99.90
75210;DHT22;63796;53.136;14.882;2023-09-30T02:56:58;15.00;99.90
75210;DHT22;63796;53.136;14.882;2023-09-30T02:59:25;15.10;99.90
75210;DHT22;63796;53.136;14.882;2023-09-30T03:01:54;15.10;99.90
75210;DHT22;63796;53.136;14.882;2023-09-30T03:04:23;15.10;99.90
75210;DHT22;63796;53.136;14.882;2023-09-30T03:06:53;14.90;99.90
75210;DHT22;63796;53.136;14.882;2023-09-30T03:09:23;14.90;99.90
75210;DHT22;63796;53.136;14.882;2023-09-30T03:11:50;14.80;99.90
75210;DHT22;63796;53.136;14.882;2023-09-30T03:14:18;14.80;99.90
75210;DHT22;63796;53.136;14.882;2023-09-30T03:16:45;14.80;99.90
75210;DHT22;63796;53.136;14.882;2023-09-30T03:19:13;14.70;99.90
75210;DHT22;63796;53.136;14.882;2023-09-30T03:21:43;14.60;99.90
75210;DHT22;63796;53.136;14.882;2023-09-30T03:24:11;14.60;99.90
75210;DHT22;63796;53.136;14.882;2023-09-30T03:26:40;14.50;99.90
75210;DHT22;63796;53.136;14.882;2023-09-30T03:29:08;14.50;99.90
75210;DHT22;63796;53.136;14.882;2023-09-30T03:31:36;14.40;99.90
75210;DHT22;63796;53.136;14.882;2023-09-30T03:34:04;14.40;99.90
75210;DHT22;63796;53.136;14.882;2023-09-30T03:36:32;14.40;99.90
75210;DHT22;63796;53.136;14.882;2023-09-30T03:39:00;14.40;99.90
75210;DHT22;63796;53.136;14.882;2023-09-30T03:41:34;14.40;99.90
75210;DHT22;63796;53.136;14.882;2023-09-30T03:44:04;14.40;99.90
75210;DHT22;63796;53.136;14.882;2023-09-30T03:46:32;14.50;99.90
75210;DHT22;63796;53.136;14.882;2023-09-30T03:49:00;14.40;99.90
75210;DHT22;63796;53.136;14.882;2023-09-30T03:51:27;14.40;99.90
75210;DHT22;63796;53.136;14.882;2023-09-30T03:53:55;14.30;99.90
75210;DHT22;63796;53.136;14.882;2023-09-30T03:56:23;14.20;99.90
75210;DHT22;63796;53.136;14.882;2023-09-30T03:58:50;14.10;99.90
75210;DHT22;63796;53.136;14.882;2023-09-30T04:01:19;14.10;99.90
75210;DHT22;63796;53.136;14.882;2023-09-30T04:03:47;14.10;99.90
75210;DHT22;63796;53.136;14.882;2023-09-30T04:06:14;14.10;99.90
75210;DHT22;63796;53.136;14.882;2023-09-30T04:08:42;14.00;99.90
75210;DHT22;63796;53.136;14.882;2023-09-30T04:11:11;14.00;99.90
75210;DHT22;63796;53.136;14.882;2023-09-30T04:13:44;13.90;99.90
75210;DHT22;63796;53.136;14.882;2023-09-30T04:16:12;14.00;99.90
75210;DHT22;63796;53.136;14.882;2023-09-30T04:18:39;13.90;99.90
75210;DHT22;63796;53.136;14.882;2023-09-30T04:21:07;13.90;99.90
75210;DHT22;63796;53.136;14.882;2023-09-30T04:23:35;13.90;99.90
75210;DHT22;63796;53.136;14.882;2023-09-30T04:26:04;13.80;99.90
75210;DHT22;63796;53.136;14.882;2023-09-30T04:28:32;13.80;99.90
75210;DHT22;63796;53.136;14.882;2023-09-30T04:31:01;13.80;99.90
75210;DHT22;63796;53.136;14.882;2023-09-30T04:33:30;13.80;99.90
75210;DHT22;63796;53.136;14.882;2023-09-30T04:35:58;13.70;99.90
75210;DHT22;63796;53.136;14.882;2023-09-30T04:38:25;13.40;99.90
75210;DHT22;63796;53.136;14.882;2023-09-30T04:40:53;13.40;99.90
75210;DHT22;63796;53.136;14.882;2023-09-30T04:43:21;13.50;99.90
75210;DHT22;63796;53.136;14.882;2023-09-30T04:45:48;13.50;99.90
75210;DHT22;63796;53.136;14.882;2023-09-30T04:48:19;13.50;99.90
75210;DHT22;63796;53.136;14.882;2023-09-30T04:50:47;13.40;99.90
75210;DHT22;63796;53.136;14.882;2023-09-30T04:53:14;13.50;99.90
75210;DHT22;63796;53.136;14.882;2023-09-30T04:55:44;13.30;99.90
75210;DHT22;63796;53.136;14.882;2023-09-30T04:58:12;13.30;99.90
75210;DHT22;63796;53.136;14.882;2023-09-30T05:00:39;13.30;99.90
75210;DHT22;63796;53.136;14.882;2023-09-30T05:03:07;13.20;99.90
75210;DHT22;63796;53.136;14.882;2023-09-30T05:05:36;13.30;99.90
75210;DHT22;63796;53.136;14.882;2023-09-30T05:08:04;13.30;99.90
75210;DHT22;63796;53.136;14.882;2023-09-30T05:10:33;13.20;99.90
75210;DHT22;63796;53.136;14.882;2023-09-30T05:13:00;13.30;99.90
75210;DHT22;63796;53.136;14.882;2023-09-30T05:15:28;13.20;99.90
75210;DHT22;63796;53.136;14.882;2023-09-30T05:17:59;13.20;99.90
75210;DHT22;63796;53.136;14.882;2023-09-30T05:20:27;13.20;99.90
75210;DHT22;63796;53.136;14.882;2023-09-30T05:22:55;13.30;99.90
75210;DHT22;63796;53.136;14.882;2023-09-30T05:25:23;13.30;99.90
75210;DHT22;63796;53.136;14.882;2023-09-30T05:27:54;13.40;99.90
75210;DHT22;63796;53.136;14.882;2023-09-30T05:30:21;13.40;99.90
75210;DHT22;63796;53.136;14.882;2023-09-30T05:32:49;13.50;99.90
75210;DHT22;63796;53.136;14.882;2023-09-30T05:35:19;13.40;99.90
75210;DHT22;63796;53.136;14.882;2023-09-30T05:37:49;13.40;99.90
75210;DHT22;63796;53.136;14.882;2023-09-30T05:40:20;13.60;99.90
75210;DHT22;63796;53.136;14.882;2023-09-30T05:42:53;13.60;99.90
75210;DHT22;63796;53.136;14.882;2023-09-30T05:45:23;13.60;99.90
75210;DHT22;63796;53.136;14.882;2023-09-30T05:47:51;13.70;99.90
75210;DHT22;63796;53.136;14.882;2023-09-30T05:50:19;13.70;99.90
75210;DHT22;63796;53.136;14.882;2023-09-30T05:52:52;13.70;99.90
75210;DHT22;63796;53.136;14.882;2023-09-30T05:55:23;13.70;99.90
75210;DHT22;63796;53.136;14.882;2023-09-30T05:57:54;13.70;99.90
75210;DHT22;63796;53.136;14.882;2023-09-30T06:00:22;13.70;99.90
75210;DHT22;63796;53.136;14.882;2023-09-30T06:02:57;13.70;99.90
75210;DHT22;63796;53.136;14.882;2023-09-30T06:05:25;13.70;99.90
75210;DHT22;63796;53.136;14.882;2023-09-30T06:08:02;13.90;99.90
75210;DHT22;63796;53.136;14.882;2023-09-30T06:10:31;13.90;99.90
75210;DHT22;63796;53.136;14.882;2023-09-30T06:12:59;14.10;99.90
75210;DHT22;63796;53.136;14.882;2023-09-30T06:15:27;14.20;99.90
75210;DHT22;63796;53.136;14.882;2023-09-30T06:17:56;14.30;99.90
75210;DHT22;63796;53.136;14.882;2023-09-30T06:20:25;14.70;99.90
75210;DHT22;63796;53.136;14.882;2023-09-30T06:22:54;15.10;99.90
75210;DHT22;63796;53.136;14.882;2023-09-30T06:25:22;15.70;99.90
75210;DHT22;63796;53.136;14.882;2023-09-30T06:27:52;16.40;99.90
75210;DHT22;63796;53.136;14.882;2023-09-30T06:30:19;17.40;99.90
75210;DHT22;63796;53.136;14.882;2023-09-30T06:32:48;18.40;99.90
75210;DHT22;63796;53.136;14.882;2023-09-30T06:35:16;19.30;99.90
75210;DHT22;63796;53.136;14.882;2023-09-30T06:37:48;20.70;99.90
75210;DHT22;63796;53.136;14.882;2023-09-30T06:40:16;22.00;99.90
75210;DHT22;63796;53.136;14.882;2023-09-30T06:42:44;22.90;99.90
75210;DHT22;63796;53.136;14.882;2023-09-30T06:45:12;23.10;99.90
75210;DHT22;63796;53.136;14.882;2023-09-30T06:47:40;23.60;99.90
75210;DHT22;63796;53.136;14.882;2023-09-30T06:50:09;23.60;99.90
75210;DHT22;63796;53.136;14.882;2023-09-30T06:52:40;23.90;99.90
75210;DHT22;63796;53.136;14.882;2023-09-30T06:55:09;23.70;99.90
75210;DHT22;63796;53.136;14.882;2023-09-30T06:57:38;23.20;99.90
75210;DHT22;63796;53.136;14.882;2023-09-30T07:00:11;23.00;99.90
75210;DHT22;63796;53.136;14.882;2023-09-30T07:02:42;22.70;99.90
75210;DHT22;63796;53.136;14.882;2023-09-30T07:05:10;22.60;99.90
75210;DHT22;63796;53.136;14.882;2023-09-30T07:07:40;21.90;99.90
75210;DHT22;63796;53.136;14.882;2023-09-30T07:10:11;21.70;99.90
75210;DHT22;63796;53.136;14.882;2023-09-30T07:12:39;21.40;99.90
75210;DHT22;63796;53.136;14.882;2023-09-30T07:15:07;22.30;99.90
75210;DHT22;63796;53.136;14.882;2023-09-30T07:17:35;21.80;99.90
75210;DHT22;63796;53.136;14.882;2023-09-30T07:20:04;21.60;99.90
75210;DHT22;63796;53.136;14.882;2023-09-30T07:22:33;21.80;99.90
75210;DHT22;63796;53.136;14.882;2023-09-30T07:25:21;21.50;99.90
75210;DHT22;63796;53.136;14.882;2023-09-30T07:27:49;21.30;99.90
75210;DHT22;63796;53.136;14.882;2023-09-30T07:30:16;20.90;99.90
75210;DHT22;63796;53.136;14.882;2023-09-30T07:32:45;20.30;99.90
75210;DHT22;63796;53.136;14.882;2023-09-30T07:35:14;19.20;99.90
75210;DHT22;63796;53.136;14.882;2023-09-30T07:37:43;19.30;99.90
75210;DHT22;63796;53.136;14.882;2023-09-30T07:40:11;19.50;99.90
75210;DHT22;63796;53.136;14.882;2023-09-30T07:42:39;19.80;99.90
75210;DHT22;63796;53.136;14.882;2023-09-30T07:45:07;19.80;99.90
75210;DHT22;63796;53.136;14.882;2023-09-30T07:47:36;20.10;99.90
75210;DHT22;63796;53.136;14.882;2023-09-30T07:50:03;20.40;99.90
75210;DHT22;63796;53.136;14.882;2023-09-30T07:52:37;20.60;99.90
75210;DHT22;63796;53.136;14.882;2023-09-30T07:55:09;20.80;99.90
75210;DHT22;63796;53.136;14.882;2023-09-30T07:57:39;20.70;99.90
75210;DHT22;63796;53.136;14.882;2023-09-30T08:00:09;20.70;99.90
75210;DHT22;63796;53.136;14.882;2023-09-30T08:02:43;20.80;99.90
75210;DHT22;63796;53.136;14.882;2023-09-30T08:05:12;21.00;99.90
75210;DHT22;63796;53.136;14.882;2023-09-30T08:07:40;20.70;99.90
75210;DHT22;63796;53.136;14.882;2023-09-30T08:10:07;20.40;99.90
75210;DHT22;63796;53.136;14.882;2023-09-30T08:12:41;20.30;99.90
75210;DHT22;63796;53.136;14.882;2023-09-30T08:15:10;20.50;99.90
75210;DHT22;63796;53.136;14.882;2023-09-30T08:17:41;20.00;99.90
75210;DHT22;63796;53.136;14.882;2023-09-30T08:20:09;20.30;99.90
75210;DHT22;63796;53.136;14.882;2023-09-30T08:22:37;20.20;99.90
75210;DHT22;63796;53.136;14.882;2023-09-30T08:25:05;19.80;99.90
75210;DHT22;63796;53.136;14.882;2023-09-30T08:27:33;19.60;99.90
75210;DHT22;63796;53.136;14.882;2023-09-30T08:30:01;19.50;99.90
75210;DHT22;63796;53.136;14.882;2023-09-30T08:32:33;19.30;99.90
75210;DHT22;63796;53.136;14.882;2023-09-30T08:35:02;19.60;99.90
75210;DHT22;63796;53.136;14.882;2023-09-30T08:37:30;19.80;99.90
75210;DHT22;63796;53.136;14.882;2023-09-30T08:39:58;19.70;99.90
75210;DHT22;63796;53.136;14.882;2023-09-30T08:42:26;19.80;99.90
75210;DHT22;63796;53.136;14.882;2023-09-30T08:45:01;20.00;99.90
75210;DHT22;63796;53.136;14.882;2023-09-30T08:47:33;19.90;99.90
75210;DHT22;63796;53.136;14.882;2023-09-30T08:50:02;19.50;99.90
75210;DHT22;63796;53.136;14.882;2023-09-30T08:52:37;19.30;99.90
75210;DHT22;63796;53.136;14.882;2023-09-30T08:55:10;19.40;99.90
75210;DHT22;63796;53.136;14.882;2023-09-30T08:57:40;19.40;99.90
75210;DHT22;63796;53.136;14.882;2023-09-30T09:00:09;19.10;99.90
75210;DHT22;63796;53.136;14.882;2023-09-30T09:02:39;19.00;99.90
75210;DHT22;63796;53.136;14.882;2023-09-30T09:05:07;19.10;99.90
75210;DHT22;63796;53.136;14.882;2023-09-30T09:07:35;18.80;99.90
75210;DHT22;63796;53.136;14.882;2023-09-30T09:10:06;18.80;99.90
75210;DHT22;63796;53.136;14.882;2023-09-30T09:12:35;18.70;99.90
75210;DHT22;63796;53.136;14.882;2023-09-30T09:15:06;18.70;99.90
75210;DHT22;63796;53.136;14.882;2023-09-30T09:17:39;18.90;99.90
75210;DHT22;63796;53.136;14.882;2023-09-30T09:20:11;19.10;99.90
75210;DHT22;63796;53.136;14.882;2023-09-30T09:22:47;18.90;99.90
75210;DHT22;63796;53.136;14.882;2023-09-30T09:25:17;19.10;99.90
75210;DHT22;63796;53.136;14.882;2023-09-30T09:27:45;19.50;99.90
75210;DHT22;63796;53.136;14.882;2023-09-30T09:32:59;20.00;99.90
75210;DHT22;63796;53.136;14.882;2023-09-30T09:35:29;20.60;99.90
75210;DHT22;63796;53.136;14.882;2023-09-30T09:38:01;20.70;99.90
75210;DHT22;63796;53.136;14.882;2023-09-30T09:40:37;21.20;99.90
75210;DHT22;63796;53.136;14.882;2023-09-30T09:43:07;21.30;99.90
75210;DHT22;63796;53.136;14.882;2023-09-30T09:45:37;20.90;99.90
75210;DHT22;63796;53.136;14.882;2023-09-30T09:48:05;20.70;99.90
75210;DHT22;63796;53.136;14.882;2023-09-30T09:50:35;21.10;99.90
75210;DHT22;63796;53.136;14.882;2023-09-30T09:53:05;21.50;99.90
75210;DHT22;63796;53.136;14.882;2023-09-30T09:55:36;22.00;99.90
75210;DHT22;63796;53.136;14.882;2023-09-30T09:58:06;22.10;99.90
75210;DHT22;63796;53.136;14.882;2023-09-30T10:00:35;22.40;99.90
75210;DHT22;63796;53.136;14.882;2023-09-30T10:03:03;23.10;99.90
75210;DHT22;63796;53.136;14.882;2023-09-30T10:05:31;22.60;99.90
75210;DHT22;63796;53.136;14.882;2023-09-30T10:08:07;21.90;99.90
75210;DHT22;63796;53.136;14.882;2023-09-30T10:10:38;21.30;99.90
75210;DHT22;63796;53.136;14.882;2023-09-30T10:13:06;21.10;99.90
75210;DHT22;63796;53.136;14.882;2023-09-30T10:15:34;21.40;99.90
75210;DHT22;63796;53.136;14.882;2023-09-30T10:18:10;22.00;99.90
75210;DHT22;63796;53.136;14.882;2023-09-30T10:20:42;22.30;99.90
75210;DHT22;63796;53.136;14.882;2023-09-30T10:23:28;23.40;99.90
75210;DHT22;63796;53.136;14.882;2023-09-30T10:28:43;24.90;99.90
75210;DHT22;63796;53.136;14.882;2023-09-30T10:31:17;24.30;99.90
75210;DHT22;63796;53.136;14.882;2023-09-30T10:36:36;24.30;99.90
75210;DHT22;63796;53.136;14.882;2023-09-30T10:39:13;24.80;99.90
75210;DHT22;63796;53.136;14.882;2023-09-30T10:46:57;23.60;99.90
75210;DHT22;63796;53.136;14.882;2023-09-30T10:51:53;23.60;99.90
75210;DHT22;63796;53.136;14.882;2023-09-30T10:54:23;24.30;99.90
75210;DHT22;63796;53.136;14.882;2023-09-30T10:56:51;23.60;99.90
75210;DHT22;63796;53.136;14.882;2023-09-30T10:59:23;24.10;99.90
75210;DHT22;63796;53.136;14.882;2023-09-30T11:01:51;23.80;99.90
75210;DHT22;63796;53.136;14.882;2023-09-30T11:04:20;23.50;99.90
75210;DHT22;63796;53.136;14.882;2023-09-30T11:06:48;23.10;99.90
75210;DHT22;63796;53.136;14.882;2023-09-30T11:09:22;22.90;99.90
75210;DHT22;63796;53.136;14.882;2023-09-30T11:11:51;23.10;99.90
75210;DHT22;63796;53.136;14.882;2023-09-30T11:16:59;24.50;99.90
75210;DHT22;63796;53.136;14.882;2023-09-30T11:19:47;24.30;99.90
75210;DHT22;63796;53.136;14.882;2023-09-30T11:22:16;25.70;99.90
75210;DHT22;63796;53.136;14.882;2023-09-30T11:24:43;24.10;99.90
75210;DHT22;63796;53.136;14.882;2023-09-30T11:27:13;23.40;99.90
75210;DHT22;63796;53.136;14.882;2023-09-30T11:29:51;22.60;99.90
75210;DHT22;63796;53.136;14.882;2023-09-30T11:32:26;22.40;99.90
75210;DHT22;63796;53.136;14.882;2023-09-30T11:34:54;22.10;99.90
75210;DHT22;63796;53.136;14.882;2023-09-30T11:37:22;21.80;99.90
75210;DHT22;63796;53.136;14.882;2023-09-30T11:39:49;21.30;99.90
75210;DHT22;63796;53.136;14.882;2023-09-30T11:42:17;21.20;99.90
75210;DHT22;63796;53.136;14.882;2023-09-30T11:44:47;21.00;99.90
75210;DHT22;63796;53.136;14.882;2023-09-30T11:47:14;21.10;99.90
75210;DHT22;63796;53.136;14.882;2023-09-30T11:49:42;21.10;99.90
75210;DHT22;63796;53.136;14.882;2023-09-30T11:52:15;21.20;99.90
75210;DHT22;63796;53.136;14.882;2023-09-30T11:54:43;21.90;99.90
75210;DHT22;63796;53.136;14.882;2023-09-30T11:57:14;22.50;99.90
75210;DHT22;63796;53.136;14.882;2023-09-30T11:59:43;23.20;99.90
75210;DHT22;63796;53.136;14.882;2023-09-30T12:02:13;23.50;99.90
75210;DHT22;63796;53.136;14.882;2023-09-30T12:04:42;24.00;99.90
75210;DHT22;63796;53.136;14.882;2023-09-30T12:07:11;24.50;99.90
75210;DHT22;63796;53.136;14.882;2023-09-30T12:09:39;25.30;99.90
75210;DHT22;63796;53.136;14.882;2023-09-30T12:12:08;26.10;99.90
75210;DHT22;63796;53.136;14.882;2023-09-30T12:14:41;27.40;99.90
75210;DHT22;63796;53.136;14.882;2023-09-30T12:17:08;28.60;99.90
75210;DHT22;63796;53.136;14.882;2023-09-30T12:19:40;26.70;99.90
75210;DHT22;63796;53.136;14.882;2023-09-30T12:22:09;28.20;99.90
75210;DHT22;63796;53.136;14.882;2023-09-30T12:24:38;29.20;99.90
75210;DHT22;63796;53.136;14.882;2023-09-30T12:27:07;29.40;99.90
75210;DHT22;63796;53.136;14.882;2023-09-30T12:29:34;28.90;99.90
75210;DHT22;63796;53.136;14.882;2023-09-30T12:32:02;28.80;99.90
75210;DHT22;63796;53.136;14.882;2023-09-30T12:34:31;27.80;99.90
75210;DHT22;63796;53.136;14.882;2023-09-30T12:36:59;27.90;99.90
75210;DHT22;63796;53.136;14.882;2023-09-30T12:39:27;26.90;99.90
75210;DHT22;63796;53.136;14.882;2023-09-30T12:41:57;26.10;99.90
75210;DHT22;63796;53.136;14.882;2023-09-30T12:44:25;24.90;99.90
75210;DHT22;63796;53.136;14.882;2023-09-30T12:46:52;24.00;99.90
75210;DHT22;63796;53.136;14.882;2023-09-30T12:49:20;24.20;99.90
75210;DHT22;63796;53.136;14.882;2023-09-30T12:51:47;24.40;99.90
75210;DHT22;63796;53.136;14.882;2023-09-30T12:54:14;23.80;99.90
75210;DHT22;63796;53.136;14.882;2023-09-30T12:56:45;23.60;99.90
75210;DHT22;63796;53.136;14.882;2023-09-30T12:59:14;23.80;99.90
75210;DHT22;63796;53.136;14.882;2023-09-30T13:01:42;23.70;99.90
75210;DHT22;63796;53.136;14.882;2023-09-30T13:04:09;23.70;99.90
75210;DHT22;63796;53.136;14.882;2023-09-30T13:06:38;23.40;99.90
75210;DHT22;63796;53.136;14.882;2023-09-30T13:09:05;23.40;99.90
75210;DHT22;63796;53.136;14.882;2023-09-30T13:11:35;23.70;99.90
75210;DHT22;63796;53.136;14.882;2023-09-30T13:14:04;23.60;99.90
75210;DHT22;63796;53.136;14.882;2023-09-30T13:16:31;23.50;99.90
75210;DHT22;63796;53.136;14.882;2023-09-30T13:18:59;23.90;99.90
75210;DHT22;63796;53.136;14.882;2023-09-30T13:21:29;23.90;99.90
75210;DHT22;63796;53.136;14.882;2023-09-30T13:23:57;23.50;99.90
75210;DHT22;63796;53.136;14.882;2023-09-30T13:26:24;23.20;99.90
75210;DHT22;63796;53.136;14.882;2023-09-30T13:28:52;23.20;99.90
75210;DHT22;63796;53.136;14.882;2023-09-30T13:31:20;23.40;99.90
75210;DHT22;63796;53.136;14.882;2023-09-30T13:33:49;23.30;99.90
75210;DHT22;63796;53.136;14.882;2023-09-30T13:36:17;23.00;99.90
75210;DHT22;63796;53.136;14.882;2023-09-30T13:38:44;22.70;99.90
75210;DHT22;63796;53.136;14.882;2023-09-30T13:41:13;22.60;99.90
75210;DHT22;63796;53.136;14.882;2023-09-30T13:43:40;22.80;99.90
75210;DHT22;63796;53.136;14.882;2023-09-30T13:46:08;23.30;99.90
75210;DHT22;63796;53.136;14.882;2023-09-30T13:48:35;23.70;99.90
75210;DHT22;63796;53.136;14.882;2023-09-30T13:51:10;24.00;99.90
75210;DHT22;63796;53.136;14.882;2023-09-30T13:53:37;24.20;99.90
75210;DHT22;63796;53.136;14.882;2023-09-30T13:56:06;24.70;99.90
75210;DHT22;63796;53.136;14.882;2023-09-30T13:58:34;24.80;99.90
75210;DHT22;63796;53.136;14.882;2023-09-30T14:01:01;24.30;99.90
75210;DHT22;63796;53.136;14.882;2023-09-30T14:03:29;23.80;99.90
75210;DHT22;63796;53.136;14.882;2023-09-30T14:05:57;23.50;99.90
75210;DHT22;63796;53.136;14.882;2023-09-30T14:08:24;23.20;99.90
75210;DHT22;63796;53.136;14.882;2023-09-30T14:10:52;23.10;99.90
75210;DHT22;63796;53.136;14.882;2023-09-30T14:13:20;23.20;99.90
75210;DHT22;63796;53.136;14.882;2023-09-30T14:15:47;23.20;99.90
75210;DHT22;63796;53.136;14.882;2023-09-30T14:18:15;23.30;99.90
75210;DHT22;63796;53.136;14.882;2023-09-30T14:20:43;23.20;99.90
75210;DHT22;63796;53.136;14.882;2023-09-30T14:23:10;23.10;99.90
75210;DHT22;63796;53.136;14.882;2023-09-30T14:25:38;23.00;99.90
75210;DHT22;63796;53.136;14.882;2023-09-30T14:28:06;22.90;99.90
75210;DHT22;63796;53.136;14.882;2023-09-30T14:30:34;22.70;99.90
75210;DHT22;63796;53.136;14.882;2023-09-30T14:33:02;22.50;99.90
75210;DHT22;63796;53.136;14.882;2023-09-30T14:35:32;22.60;99.90
75210;DHT22;63796;53.136;14.882;2023-09-30T14:38:04;22.20;99.90
75210;DHT22;63796;53.136;14.882;2023-09-30T14:40:36;21.90;99.90
75210;DHT22;63796;53.136;14.882;2023-09-30T14:43:07;21.60;99.90
75210;DHT22;63796;53.136;14.882;2023-09-30T14:45:38;21.30;99.90
75210;DHT22;63796;53.136;14.882;2023-09-30T14:48:07;21.20;99.90
75210;DHT22;63796;53.136;14.882;2023-09-30T14:50:37;20.90;99.90
75210;DHT22;63796;53.136;14.882;2023-09-30T14:53:05;20.80;99.90
75210;DHT22;63796;53.136;14.882;2023-09-30T14:55:32;20.80;99.90
75210;DHT22;63796;53.136;14.882;2023-09-30T14:58:00;21.00;99.90
75210;DHT22;63796;53.136;14.882;2023-09-30T15:00:27;20.90;99.90
75210;DHT22;63796;53.136;14.882;2023-09-30T15:02:55;20.80;99.90
75210;DHT22;63796;53.136;14.882;2023-09-30T15:05:23;20.70;99.90
75210;DHT22;63796;53.136;14.882;2023-09-30T15:07:51;20.60;99.90
75210;DHT22;63796;53.136;14.882;2023-09-30T15:10:18;20.50;99.90
75210;DHT22;63796;53.136;14.882;2023-09-30T15:12:46;20.30;99.90
75210;DHT22;63796;53.136;14.882;2023-09-30T15:15:14;20.30;99.90
75210;DHT22;63796;53.136;14.882;2023-09-30T15:17:41;20.30;99.90
75210;DHT22;63796;53.136;14.882;2023-09-30T15:20:09;20.30;99.90
75210;DHT22;63796;53.136;14.882;2023-09-30T15:22:37;20.20;99.90
75210;DHT22;63796;53.136;14.882;2023-09-30T15:25:05;20.10;99.90
75210;DHT22;63796;53.136;14.882;2023-09-30T15:27:33;20.10;99.90
75210;DHT22;63796;53.136;14.882;2023-09-30T15:30:00;20.00;99.90
75210;DHT22;63796;53.136;14.882;2023-09-30T15:32:28;19.90;99.90
75210;DHT22;63796;53.136;14.882;2023-09-30T15:34:55;19.90;99.90
75210;DHT22;63796;53.136;14.882;2023-09-30T15:37:23;19.80;99.90
75210;DHT22;63796;53.136;14.882;2023-09-30T15:39:50;19.70;99.90
75210;DHT22;63796;53.136;14.882;2023-09-30T15:42:18;19.70;99.90
75210;DHT22;63796;53.136;14.882;2023-09-30T15:44:45;19.60;99.90